Time;durP1;ratioP1;P1;durP2;ratioP2;P2;SDS_P1;SDS_P2;PMS_P1;PMS_P2;Temp;Humidity;BMP_temperature;BMP_pressure;BME280_temperature;BME280_humidity;BME280_pressure;Samples;Min_cycle;Max_cycle;Signal;HPM_P1;HPM_P2
2021/07/19 00:00:31;;;;;;;20.33;12.85;;;;;;;;;;5117310;28;20035;-83
2021/07/19 00:02:57;;;;;;;17.52;12.48;;;;;;;;;;5115950;28;20024;-84
2021/07/19 00:05:26;;;;;;;19.35;13.10;;;;;;;;;;5117206;28;20031;-83
2021/07/19 00:07:52;;;;;;;;;;;;;;;;;;5117436;28;20429;-85
2021/07/19 00:10:19;;;;;;;17.40;12.52;;;;;;;;;;5117109;28;19916;-84
2021/07/19 00:12:46;;;;;;;23.65;12.93;;;;;;;;;;5117098;28;20027;-84
2021/07/19 00:15:24;;;;;;;21.27;14.88;;;;;;;;;;5116949;28;20080;-84
2021/07/19 00:17:52;;;;;;;21.00;13.15;;;;;;;;;;5116930;28;20031;-84
2021/07/19 00:20:18;;;;;;;22.77;13.38;;;;;;;;;;5116896;28;20038;-85
2021/07/19 00:22:45;;;;;;;21.52;13.95;;;;;;;;;;5116937;28;20030;-83
2021/07/19 00:25:14;;;;;;;21.23;14.50;;;;;;;;;;5116747;28;20125;-84
2021/07/19 00:27:42;;;;;;;16.98;11.60;;;;;;;;;;5116857;28;20026;-84
2021/07/19 00:30:10;;;;;;;19.17;11.50;;;;;;;;;;5116666;28;20028;-84
2021/07/19 00:32:39;;;;;;;14.25;10.80;;;;;;;;;;5116618;28;20019;-84
2021/07/19 00:35:06;;;;;;;27.60;12.43;;;;;;;;;;5116455;28;20028;-83
2021/07/19 00:37:31;;;;;;;19.77;11.88;;;;;;;;;;5116501;28;20019;-84
2021/07/19 00:39:57;;;;;;;16.55;11.23;;;;;;;;;;5116431;28;20042;-87
2021/07/19 00:42:23;;;;;;;14.68;10.38;;;;;;;;;;5114997;28;20042;-84
2021/07/19 00:44:49;;;;;;;15.65;10.57;;;;;;;;;;5115111;28;20035;-85
2021/07/19 00:47:16;;;;;;;17.60;11.07;;;;;;;;;;5116446;28;20112;-84
2021/07/19 00:49:44;;;;;;;17.65;13.02;;;;;;;;;;5116467;28;20020;-84
2021/07/19 00:52:10;;;;;;;17.75;13.77;;;;;;;;;;5116178;28;20080;-84
2021/07/19 00:54:38;;;;;;;16.88;12.05;;;;;;;;;;5115863;28;20130;-83
2021/07/19 00:57:05;;;;;;;19.77;12.45;;;;;;;;;;5116294;28;20098;-84
2021/07/19 00:59:34;;;;;;;23.35;15.98;;;;;;;;;;5116057;28;20023;-84
2021/07/19 01:02:02;;;;;;;25.80;17.25;;;;;;;;;;5116127;28;20034;-84
2021/07/19 01:04:30;;;;;;;26.27;16.15;;;;;;;;;;5116351;28;20384;-83
2021/07/19 01:07:03;;;;;;;25.95;17.33;;;;;;;;;;5115916;28;20099;-85
2021/07/19 01:09:30;;;;;;;25.10;16.13;;;;;;;;;;5115910;28;20494;-84
2021/07/19 01:11:58;;;;;;;20.02;13.98;;;;;;;;;;5115821;28;20024;-83
2021/07/19 01:14:23;;;;;;;18.33;12.80;;;;;;;;;;5115682;28;20028;-84
2021/07/19 01:16:49;;;;;;;19.70;12.98;;;;;;;;;;5115636;28;20027;-85
2021/07/19 01:19:16;;;;;;;19.13;11.73;;;;;;;;;;5115689;28;20115;-84
2021/07/19 01:22:19;;;;;;;15.65;10.55;;;;;;;;;;5115533;28;20080;-84
2021/07/19 01:25:09;;;;;;;17.05;10.88;;;;;;;;;;5115571;28;20024;-84
2021/07/19 01:27:55;;;;;;;21.27;12.18;;;;;;;;;;5115601;28;20085;-84
2021/07/19 01:30:21;;;;;;;18.33;11.38;;;;;;;;;;5115536;28;20185;-85
2021/07/19 01:32:48;;;;;;;21.67;11.40;;;;;;;;;;5115327;28;20019;-85
2021/07/19 01:35:15;;;;;;;15.23;10.63;;;;;;;;;;5114094;28;20543;-85
2021/07/19 01:37:44;;;;;;;15.98;10.98;;;;;;;;;;5115289;28;20020;-85
2021/07/19 01:40:11;;;;;;;20.85;11.15;;;;;;;;;;5115226;28;20371;-84
2021/07/19 01:42:38;;;;;;;15.75;10.10;;;;;;;;;;5115357;28;20054;-85
2021/07/19 01:45:05;;;;;;;15.68;10.27;;;;;;;;;;5113780;28;20020;-85
2021/07/19 01:47:32;;;;;;;16.00;10.27;;;;;;;;;;5115175;28;20047;-85
2021/07/19 01:49:59;;;;;;;14.73;10.40;;;;;;;;;;5115096;28;20035;-84
2021/07/19 01:52:25;;;;;;;20.75;10.88;;;;;;;;;;5114982;28;20092;-85
2021/07/19 01:54:51;;;;;;;19.40;12.35;;;;;;;;;;5114677;28;20051;-85
2021/07/19 01:57:17;;;;;;;15.90;11.13;;;;;;;;;;5115037;28;20047;-85
2021/07/19 01:59:44;;;;;;;21.30;11.32;;;;;;;;;;5114828;28;20075;-86
2021/07/19 02:02:11;;;;;;;16.65;11.80;;;;;;;;;;5114917;28;20035;-84
2021/07/19 02:04:37;;;;;;;17.38;11.75;;;;;;;;;;5114234;28;20032;-85
2021/07/19 02:07:04;;;;;;;19.95;11.45;;;;;;;;;;5114729;28;20460;-85
2021/07/19 02:09:31;;;;;;;19.05;11.13;;;;;;;;;;5114731;28;20023;-86
2021/07/19 02:12:02;;;;;;;16.80;11.43;;;;;;;;;;5114600;28;20493;-85
2021/07/19 02:14:28;;;;;;;16.42;11.63;;;;;;;;;;5114583;28;20486;-85
2021/07/19 02:16:54;;;;;;;19.60;11.77;;;;;;;;;;5114659;28;20019;-85
2021/07/19 02:19:23;;;;;;;19.30;12.93;;;;;;;;;;5114697;28;20030;-87
2021/07/19 02:21:49;;;;;;;20.08;14.20;;;;;;;;;;5114563;28;20446;-85
2021/07/19 02:24:17;;;;;;;14.85;10.98;;;;;;;;;;5115184;28;20087;-85
2021/07/19 02:26:44;;;;;;;17.80;11.35;;;;;;;;;;5115280;28;20019;-85
2021/07/19 02:29:10;;;;;;;16.80;11.05;;;;;;;;;;5114473;28;20030;-85
2021/07/19 02:31:38;;;;;;;17.73;11.73;;;;;;;;;;5113067;28;20118;-84
2021/07/19 02:34:06;;;;;;;14.60;10.23;;;;;;;;;;5112985;28;20394;-85
2021/07/19 02:36:32;;;;;;;17.63;10.60;;;;;;;;;;5114336;28;20467;-86
2021/07/19 02:38:59;;;;;;;19.60;10.43;;;;;;;;;;5114522;28;20031;-84
2021/07/19 02:41:26;;;;;;;17.85;11.13;;;;;;;;;;5114560;28;20478;-85
2021/07/19 02:43:58;;;;;;;19.67;11.68;;;;;;;;;;5114288;28;20035;-85
2021/07/19 02:46:25;;;;;;;15.63;10.63;;;;;;;;;;5114465;28;20012;-85
2021/07/19 02:48:53;;;;;;;17.88;10.65;;;;;;;;;;5114213;28;20119;-85
2021/07/19 02:51:21;;;;;;;15.77;10.10;;;;;;;;;;5114205;28;20103;-84
2021/07/19 02:53:50;;;;;;;16.38;11.00;;;;;;;;;;5113939;28;20024;-84
2021/07/19 02:56:17;;;;;;;14.40;10.05;;;;;;;;;;5114194;28;20020;-85
2021/07/19 02:58:44;;;;;;;17.27;10.93;;;;;;;;;;5118758;28;20077;-85
2021/07/19 03:01:13;;;;;;;16.83;11.15;;;;;;;;;;5114233;28;20031;-83
2021/07/19 03:03:40;;;;;;;15.40;11.27;;;;;;;;;;5125833;28;20023;-85
2021/07/19 03:06:12;;;;;;;15.95;10.68;;;;;;;;;;5098433;28;20506;-84
2021/07/19 03:08:40;;;;;;;14.35;10.90;;;;;;;;;;5093843;28;20399;-86
2021/07/19 03:11:10;;;;;;;13.65;9.52;;;;;;;;;;5095152;28;20020;-84
2021/07/19 03:13:37;;;;;;;16.10;10.50;;;;;;;;;;5094905;28;20035;-84
2021/07/19 03:16:05;;;;;;;18.35;10.80;;;;;;;;;;5095837;28;20039;-85
2021/07/19 03:18:35;;;;;;;17.05;10.00;;;;;;;;;;5099021;28;20024;-85
2021/07/19 03:21:02;;;;;;;13.85;10.15;;;;;;;;;;5098890;28;20475;-85
2021/07/19 03:23:30;;;;;;;16.95;9.88;;;;;;;;;;5097391;28;20035;-84
2021/07/19 03:25:58;;;;;;;16.23;10.07;;;;;;;;;;5098613;28;20533;-84
2021/07/19 03:28:25;;;;;;;16.55;10.27;;;;;;;;;;5098435;28;20032;-84
2021/07/19 03:30:52;;;;;;;18.55;11.02;;;;;;;;;;5098485;28;20191;-84
2021/07/19 03:33:19;;;;;;;18.13;10.55;;;;;;;;;;5098429;28;20107;-85
2021/07/19 03:35:45;;;;;;;16.00;11.48;;;;;;;;;;5098247;28;20024;-84
2021/07/19 03:38:14;;;;;;;17.25;11.43;;;;;;;;;;5096633;28;20127;-83
2021/07/19 03:40:40;;;;;;;17.52;10.55;;;;;;;;;;5097230;28;20032;-84
2021/07/19 03:43:07;;;;;;;18.08;11.60;;;;;;;;;;5095833;28;20028;-83
2021/07/19 03:45:33;;;;;;;21.85;13.05;;;;;;;;;;5096043;28;20024;-84
2021/07/19 03:48:00;;;;;;;21.02;13.27;;;;;;;;;;5097196;28;20028;-88
2021/07/19 03:50:27;;;;;;;29.45;15.77;;;;;;;;;;5098095;28;20493;-86
2021/07/19 03:52:53;;;;;;;23.00;14.90;;;;;;;;;;5097155;28;20043;-86
2021/07/19 03:55:19;;;;;;;25.35;15.38;;;;;;;;;;5096926;28;20048;-85
2021/07/19 03:57:45;;;;;;;21.80;15.13;;;;;;;;;;5096901;28;20387;-88
2021/07/19 04:00:16;;;;;;;23.27;14.70;;;;;;;;;;5096834;28;20060;-88
2021/07/19 04:02:45;;;;;;;21.30;13.95;;;;;;;;;;5097067;28;20035;-88
2021/07/19 04:05:14;;;;;;;23.38;16.10;;;;;;;;;;5096809;28;20523;-87
2021/07/19 04:07:43;;;;;;;21.25;14.13;;;;;;;;;;5097445;28;20065;-87
2021/07/19 04:10:19;;;;;;;20.45;12.30;;;;;;;;;;5096854;28;20020;-86
2021/07/19 04:12:47;;;;;;;17.42;12.07;;;;;;;;;;5096825;28;20020;-85
2021/07/19 04:15:14;;;;;;;16.83;11.63;;;;;;;;;;5095339;28;20024;-87
2021/07/19 04:17:40;;;;;;;18.75;12.55;;;;;;;;;;5096549;28;20360;-90
2021/07/19 04:20:09;;;;;;;19.30;12.02;;;;;;;;;;5096537;28;20107;-89
2021/07/19 04:22:35;;;;;;;19.20;13.00;;;;;;;;;;5096327;28;20024;-88
2021/07/19 04:25:07;;;;;;;19.17;12.90;;;;;;;;;;5096340;28;20032;-89
2021/07/19 04:27:34;;;;;;;18.67;12.68;;;;;;;;;;5096074;28;20360;-89
2021/07/19 04:30:00;;;;;;;20.42;13.98;;;;;;;;;;5096212;28;20016;-88
2021/07/19 04:32:26;;;;;;;16.75;13.20;;;;;;;;;;5094961;28;20017;-88
2021/07/19 04:34:51;;;;;;;18.50;12.32;;;;;;;;;;5096155;28;20031;-85
2021/07/19 04:37:17;;;;;;;15.50;11.10;;;;;;;;;;5096282;28;20029;-85
2021/07/19 04:39:43;;;;;;;14.55;9.63;;;;;;;;;;5094741;28;20169;-86
2021/07/19 04:42:10;;;;;;;14.98;9.98;;;;;;;;;;5096136;28;20055;-86
2021/07/19 04:44:37;;;;;;;17.90;11.48;;;;;;;;;;5095385;28;20458;-85
2021/07/19 04:47:04;;;;;;;12.55;9.85;;;;;;;;;;5095973;28;20035;-85
2021/07/19 04:49:30;;;;;;;17.40;10.57;;;;;;;;;;5095890;28;20089;-86
2021/07/19 04:51:55;;;;;;;16.23;11.18;;;;;;;;;;5095758;28;20024;-87
2021/07/19 04:54:25;;;;;;;16.05;10.65;;;;;;;;;;5095622;28;20123;-87
2021/07/19 04:56:55;;;;;;;16.33;12.35;;;;;;;;;;5094458;28;20032;-86
2021/07/19 04:59:23;;;;;;;17.02;13.25;;;;;;;;;;5094600;28;20020;-86
2021/07/19 05:01:52;;;;;;;17.67;12.23;;;;;;;;;;5095603;28;20433;-84
2021/07/19 05:04:25;;;;;;;19.98;13.05;;;;;;;;;;5095602;28;20434;-86
2021/07/19 05:06:52;;;;;;;20.08;15.07;;;;;;;;;;5094342;28;20619;-86
2021/07/19 05:09:18;;;;;;;20.45;13.93;;;;;;;;;;5095402;28;20024;-84
2021/07/19 05:11:45;;;;;;;24.65;14.23;;;;;;;;;;5095361;28;20468;-84
2021/07/19 05:14:12;;;;;;;20.30;12.73;;;;;;;;;;5094065;28;20070;-85
2021/07/19 05:16:39;;;;;;;14.82;10.55;;;;;;;;;;5095380;28;20071;-84
2021/07/19 05:19:05;;;;;;;20.83;13.55;;;;;;;;;;5095167;28;20488;-85
2021/07/19 05:21:35;;;;;;;16.60;11.82;;;;;;;;;;5095524;28;20024;-84
2021/07/19 05:24:01;;;;;;;15.95;12.35;;;;;;;;;;5093850;28;20020;-85
2021/07/19 05:26:27;;;;;;;16.55;12.20;;;;;;;;;;5095112;28;20025;-86
2021/07/19 05:28:56;;;;;;;17.17;11.90;;;;;;;;;;5095284;28;20029;-88
2021/07/19 05:31:22;;;;;;;17.63;12.50;;;;;;;;;;5093759;28;20035;-87
2021/07/19 05:33:48;;;;;;;15.68;12.07;;;;;;;;;;5094929;28;20042;-86
2021/07/19 05:36:14;;;;;;;16.95;12.65;;;;;;;;;;5093844;28;20032;-87
2021/07/19 05:38:41;;;;;;;17.35;12.90;;;;;;;;;;5094086;28;20030;-86
2021/07/19 05:41:11;;;;;;;19.40;13.10;;;;;;;;;;5095158;28;20023;-87
2021/07/19 05:43:37;;;;;;;17.50;15.57;;;;;;;;;;5094893;28;20030;-88
2021/07/19 05:46:04;;;;;;;16.65;11.90;;;;;;;;;;5094797;28;20028;-88
2021/07/19 05:48:30;;;;;;;17.35;13.13;;;;;;;;;;5093409;28;20106;-89
2021/07/19 05:50:57;;;;;;;17.75;12.15;;;;;;;;;;5093414;28;20479;-90
2021/07/19 05:53:23;;;;;;;18.45;15.35;;;;;;;;;;5094620;28;20032;-90
2021/07/19 05:55:51;;;;;;;20.23;12.82;;;;;;;;;;5094441;28;20058;-88
2021/07/19 05:58:18;;;;;;;17.25;12.68;;;;;;;;;;5094498;28;20024;-88
2021/07/19 06:00:44;;;;;;;19.00;16.83;;;;;;;;;;5094548;28;20482;-89
2021/07/19 06:03:09;;;;;;;18.65;16.17;;;;;;;;;;5094499;28;20060;-88
2021/07/19 06:05:36;;;;;;;17.60;15.40;;;;;;;;;;5093255;28;20067;-89
2021/07/19 06:08:03;;;;;;;16.23;11.95;;;;;;;;;;5094447;28;20357;-92
2021/07/19 06:10:29;;;;;;;17.27;15.48;;;;;;;;;;5094410;28;20020;-90
2021/07/19 06:12:55;;;;;;;16.00;11.02;;;;;;;;;;5094707;28;20104;-90
2021/07/19 06:15:20;;;;;;;16.00;14.30;;;;;;;;;;5094270;28;20127;-87
2021/07/19 06:17:46;;;;;;;15.48;10.15;;;;;;;;;;5093030;28;20028;-89
2021/07/19 06:20:13;;;;;;;15.82;14.13;;;;;;;;;;5094067;28;20475;-87
2021/07/19 06:22:40;;;;;;;15.05;10.77;;;;;;;;;;5094084;28;20111;-88
2021/07/19 06:25:07;;;;;;;15.02;13.40;;;;;;;;;;5109656;28;20030;-90
2021/07/19 06:27:33;;;;;;;15.93;12.52;;;;;;;;;;5094058;28;20026;-90
2021/07/19 06:29:59;;;;;;;15.25;12.32;;;;;;;;;;5093885;28;20020;-87
2021/07/19 06:32:24;;;;;;;16.35;12.88;;;;;;;;;;5093921;28;20028;-88
2021/07/19 06:34:50;;;;;;;14.68;11.77;;;;;;;;;;5094064;28;20054;-88
2021/07/19 06:37:16;;;;;;;15.10;13.50;;;;;;;;;;5093941;28;20103;-90
2021/07/19 06:39:41;;;;;;;14.45;11.68;;;;;;;;;;5093788;28;20115;-88
2021/07/19 06:42:07;;;;;;;12.98;11.30;;;;;;;;;;5092510;28;20028;-88
2021/07/19 06:44:33;;;;;;;15.43;12.05;;;;;;;;;;5109548;28;20028;-88
2021/07/19 06:46:59;;;;;;;15.57;12.00;;;;;;;;;;5093789;28;20023;-87
2021/07/19 06:49:28;;;;;;;14.30;11.20;;;;;;;;;;5092230;28;20114;-86
2021/07/19 06:51:53;;;;;;;11.48;8.90;;;;;;;;;;5092392;28;20384;-88
2021/07/19 06:54:20;;;;;;;13.57;8.60;;;;;;;;;;5093149;28;20055;-87
2021/07/19 06:56:45;;;;;;;13.95;9.70;;;;;;;;;;5092284;28;20020;-87
2021/07/19 06:59:14;;;;;;;15.98;11.70;;;;;;;;;;5093561;28;20032;-89
2021/07/19 07:01:41;;;;;;;16.00;11.45;;;;;;;;;;5093681;28;20020;-87
2021/07/19 07:04:07;;;;;;;13.65;8.40;;;;;;;;;;5093648;28;20078;-89
2021/07/19 07:06:33;;;;;;;11.70;8.73;;;;;;;;;;5093875;28;20081;-87
2021/07/19 07:08:59;;;;;;;11.82;8.77;;;;;;;;;;5099942;28;20036;-92
2021/07/19 07:11:28;;;;;;;12.93;7.53;;;;;;;;;;5108104;28;20031;-88
2021/07/19 07:13:56;;;;;;;13.13;11.68;;;;;;;;;;5109950;28;20027;-87
2021/07/19 08:40:20;;;;;;;16.17;9.10;;;;;;;;;;5099980;27;1586231;-84
2021/07/19 08:42:46;;;;;;;13.05;7.90;;;;;;;;;;5131961;27;20034;-85
2021/07/19 08:45:13;;;;;;;13.20;6.88;;;;;;;;;;5130709;28;20386;-87
2021/07/19 08:47:41;;;;;;;11.07;7.55;;;;;;;;;;5130582;28;20088;-85
2021/07/19 08:50:09;;;;;;;10.50;7.30;;;;;;;;;;5130434;28;20023;-86
2021/07/19 08:52:35;;;;;;;13.80;7.82;;;;;;;;;;5131779;27;20054;-85
2021/07/19 08:55:10;;;;;;;8.57;6.28;;;;;;;;;;5130471;28;20114;-84
2021/07/19 08:57:38;;;;;;;8.60;5.63;;;;;;;;;;5132036;27;20144;-85
2021/07/19 09:00:08;;;;;;;10.10;6.55;;;;;;;;;;5131504;27;20023;-86
2021/07/19 09:02:34;;;;;;;8.18;4.85;;;;;;;;;;5131499;27;20114;-87
2021/07/19 09:04:59;;;;;;;8.70;5.30;;;;;;;;;;5131636;27;20450;-86
2021/07/19 09:07:25;;;;;;;12.43;5.95;;;;;;;;;;5130216;28;20467;-88
2021/07/19 09:09:52;;;;;;;14.65;6.18;;;;;;;;;;5130302;28;20031;-92
2021/07/19 09:12:33;;;;;;;11.13;4.72;;;;;;;;;;5130249;28;20070;-87
2021/07/19 09:14:59;;;;;;;7.45;4.88;;;;;;;;;;5131380;27;20023;-88
2021/07/19 09:17:26;;;;;;;5.70;4.32;;;;;;;;;;5131409;27;20482;-92
2021/07/19 09:19:54;;;;;;;8.80;4.78;;;;;;;;;;5129884;28;20118;-89
2021/07/19 09:22:38;;;;;;;13.60;5.05;;;;;;;;;;5131448;27;20026;-87
2021/07/19 09:25:10;;;;;;;8.45;5.22;;;;;;;;;;5129917;28;20042;-87
2021/07/19 09:27:40;;;;;;;9.82;5.90;;;;;;;;;;5131028;27;20054;-87
2021/07/19 09:30:18;;;;;;;7.38;5.05;;;;;;;;;;5130975;27;20020;-87
2021/07/19 09:33:22;;;;;;;8.85;4.40;;;;;;;;;;5131135;27;20077;-88
2021/07/19 09:35:52;;;;;;;8.80;5.03;;;;;;;;;;5116888;28;20035;-89
2021/07/19 09:38:18;;;;;;;6.78;4.40;;;;;;;;;;5131309;27;20098;-85
2021/07/19 09:40:56;;;;;;;8.57;4.90;;;;;;;;;;5131078;27;20482;-84
2021/07/19 09:43:24;;;;;;;8.45;5.65;;;;;;;;;;5130798;27;20027;-85
2021/07/19 09:46:19;;;;;;;9.07;4.95;;;;;;;;;;5131034;27;20023;-85
2021/07/19 09:48:45;;;;;;;7.57;4.97;;;;;;;;;;5113137;27;20122;-85
2021/07/19 09:51:10;;;;;;;10.00;5.22;;;;;;;;;;5120153;27;20472;-85
2021/07/19 09:53:39;;;;;;;9.60;5.25;;;;;;;;;;5116948;28;20509;-85
2021/07/19 09:56:13;;;;;;;9.60;5.20;;;;;;;;;;5115583;28;20032;-85
2021/07/19 09:58:47;;;;;;;9.90;4.65;;;;;;;;;;5116924;28;20419;-85
2021/07/19 10:01:25;;;;;;;6.60;3.85;;;;;;;;;;5117085;28;20038;-85
2021/07/19 10:04:09;;;;;;;7.13;4.95;;;;;;;;;;5116958;28;20080;-85
2021/07/19 10:06:36;;;;;;;7.00;4.15;;;;;;;;;;5115317;28;20034;-85
2021/07/19 10:09:05;;;;;;;9.65;5.45;;;;;;;;;;5114885;28;20418;-85
2021/07/19 10:11:38;;;;;;;8.10;3.88;;;;;;;;;;5115339;28;20445;-85
2021/07/19 10:14:07;;;;;;;7.60;5.07;;;;;;;;;;5107195;28;20035;-86
2021/07/19 10:16:36;;;;;;;9.30;5.07;;;;;;;;;;5097474;28;20020;-85
2021/07/19 10:19:04;;;;;;;8.68;4.68;;;;;;;;;;5095919;28;20030;-85
2021/07/19 10:21:32;;;;;;;9.40;5.15;;;;;;;;;;5095993;28;20099;-85
2021/07/19 10:24:00;;;;;;;11.07;5.68;;;;;;;;;;5096113;28;20046;-85
2021/07/19 10:26:28;;;;;;;7.97;4.20;;;;;;;;;;5096090;28;20055;-85
2021/07/19 10:28:54;;;;;;;8.10;4.10;;;;;;;;;;5095749;28;20084;-85
2021/07/19 10:31:20;;;;;;;8.98;4.05;;;;;;;;;;5094533;28;20028;-88
2021/07/19 10:33:48;;;;;;;8.45;4.70;;;;;;;;;;5096070;28;20031;-86
2021/07/19 10:36:40;;;;;;;8.45;4.65;;;;;;;;;;5095741;28;20486;-86
2021/07/19 10:39:21;;;;;;;7.90;3.40;;;;;;;;;;5083389;28;20040;-84
2021/07/19 10:42:08;;;;;;;9.45;3.63;;;;;;;;;;5095997;28;20376;-85
2021/07/19 10:44:36;;;;;;;;;;;;;;;;;;5096064;28;20487;-90
2021/07/19 10:47:16;;;;;;;9.77;3.88;;;;;;;;;;5094258;28;19908;-90
2021/07/19 10:49:59;;;;;;;6.50;4.30;;;;;;;;;;5095745;28;20032;-87
2021/07/19 10:52:33;;;;;;;8.52;3.78;;;;;;;;;;5094153;28;20024;-87
2021/07/19 10:55:01;;;;;;;8.88;3.95;;;;;;;;;;5094237;28;20024;-89
2021/07/19 10:57:38;;;;;;;10.75;4.65;;;;;;;;;;5095202;28;20020;-88
2021/07/19 11:00:09;;;;;;;7.32;4.82;;;;;;;;;;5094032;28;20032;-91
2021/07/19 11:02:35;;;;;;;6.00;4.43;;;;;;;;;;5094466;28;20020;-88
2021/07/19 11:05:02;;;;;;;6.93;3.58;;;;;;;;;;5095276;28;20099;-88
2021/07/19 11:07:41;;;;;;;7.57;4.50;;;;;;;;;;5095174;28;20024;-90
2021/07/19 11:10:19;;;;;;;8.18;4.15;;;;;;;;;;5095031;28;20467;-88
2021/07/19 11:12:57;;;;;;;7.90;4.60;;;;;;;;;;5095051;28;20028;-87
2021/07/19 11:15:42;;;;;;;9.60;5.13;;;;;;;;;;5094635;28;20016;-88
2021/07/19 11:18:16;;;;;;;8.73;5.63;;;;;;;;;;5093131;28;20041;-88
2021/07/19 11:20:43;;;;;;;12.18;5.40;;;;;;;;;;5093659;28;20039;-87
2021/07/19 11:23:10;;;;;;;8.18;4.60;;;;;;;;;;5095358;28;20020;-89
2021/07/19 11:25:43;;;;;;;9.25;5.53;;;;;;;;;;5095658;28;20028;-87
2021/07/19 11:28:23;;;;;;;6.78;4.15;;;;;;;;;;5099003;28;20031;-86
2021/07/19 11:31:13;;;;;;;7.95;4.32;;;;;;;;;;5124799;28;20036;-88
2021/07/19 11:33:47;;;;;;;8.82;5.57;;;;;;;;;;5120351;28;20049;-88
2021/07/19 11:36:41;;;;;;;8.65;4.90;;;;;;;;;;5105859;28;20062;-87
2021/07/19 11:39:16;;;;;;;8.70;4.57;;;;;;;;;;5096768;28;20125;-88
2021/07/19 11:41:42;;;;;;;8.43;4.90;;;;;;;;;;5094474;28;20035;-87
2021/07/19 11:44:15;;;;;;;11.32;5.70;;;;;;;;;;5095118;28;20165;-88
2021/07/19 11:46:42;;;;;;;9.13;5.72;;;;;;;;;;5094816;28;20024;-88
2021/07/19 11:49:13;;;;;;;11.43;5.63;;;;;;;;;;5094440;28;20024;-88
2021/07/19 11:51:45;;;;;;;11.48;6.00;;;;;;;;;;5093219;28;20024;-89
2021/07/19 11:54:13;;;;;;;9.60;4.95;;;;;;;;;;5094313;28;20047;-89
2021/07/19 11:56:51;;;;;;;9.32;6.22;;;;;;;;;;5094354;28;20376;-88
2021/07/19 11:59:21;;;;;;;9.20;5.32;;;;;;;;;;5092959;28;20028;-89
2021/07/19 12:02:00;;;;;;;11.95;5.95;;;;;;;;;;5094148;28;20471;-87
2021/07/19 12:04:55;;;;;;;8.25;4.90;;;;;;;;;;5088801;28;20074;-91
2021/07/19 12:07:26;;;;;;;9.38;5.28;;;;;;;;;;5083510;28;20061;-86
2021/07/19 12:10:03;;;;;;;10.55;5.45;;;;;;;;;;5097229;28;20028;-87
2021/07/19 12:12:29;;;;;;;8.05;4.68;;;;;;;;;;5092922;28;20031;-87
2021/07/19 12:15:04;;;;;;;6.78;4.22;;;;;;;;;;5093663;28;20036;-91
2021/07/19 12:17:32;;;;;;;11.45;6.25;;;;;;;;;;5094109;28;20020;-88
2021/07/19 12:19:59;;;;;;;11.13;5.60;;;;;;;;;;5093725;28;20498;-85
2021/07/19 12:22:24;;;;;;;9.68;6.55;;;;;;;;;;5093966;28;20063;-86
2021/07/19 12:24:55;;;;;;;9.13;5.63;;;;;;;;;;5093858;28;20056;-85
2021/07/19 12:27:22;;;;;;;11.07;6.18;;;;;;;;;;5093834;28;20024;-85
2021/07/19 12:29:50;;;;;;;10.93;6.40;;;;;;;;;;5093924;28;20028;-85
2021/07/19 12:32:16;;;;;;;7.50;5.20;;;;;;;;;;5092478;28;20024;-87
2021/07/19 12:34:43;;;;;;;8.43;5.43;;;;;;;;;;5093969;28;20420;-86
2021/07/19 12:37:11;;;;;;;8.60;5.82;;;;;;;;;;5093780;28;20027;-86
2021/07/19 12:39:47;;;;;;;13.48;5.88;;;;;;;;;;5093373;28;20044;-86
2021/07/19 12:42:32;;;;;;;7.93;5.45;;;;;;;;;;5093958;28;20028;-87
2021/07/19 12:44:59;;;;;;;11.40;6.03;;;;;;;;;;5093825;28;20134;-86
2021/07/19 12:47:28;;;;;;;8.68;5.28;;;;;;;;;;5103552;28;20073;-87
2021/07/19 12:49:54;;;;;;;8.48;4.88;;;;;;;;;;5093137;28;20114;-90
2021/07/19 12:52:21;;;;;;;9.35;5.93;;;;;;;;;;5109999;28;20534;-87
2021/07/19 12:54:56;;;;;;;10.38;5.25;;;;;;;;;;5113816;28;20019;-91
2021/07/19 12:57:23;;;;;;;11.00;5.50;;;;;;;;;;5114386;28;20031;-89
2021/07/19 12:59:51;;;;;;;7.97;5.85;;;;;;;;;;5114293;28;20030;-90
2021/07/19 13:02:18;;;;;;;8.02;7.18;;;;;;;;;;5113790;28;20436;-90
2021/07/19 13:04:43;;;;;;;8.45;5.32;;;;;;;;;;5112311;28;20052;-92
2021/07/19 13:07:09;;;;;;;9.60;4.63;;;;;;;;;;5120736;28;20031;-93
2021/07/19 13:09:36;;;;;;;9.88;5.30;;;;;;;;;;5125380;28;20039;-93
2021/07/19 13:12:07;;;;;;;10.70;4.68;;;;;;;;;;5125596;28;20049;-92
2021/07/19 13:14:44;;;;;;;9.60;4.68;;;;;;;;;;5121990;28;20024;-93
2021/07/19 13:17:21;;;;;;;9.85;5.18;;;;;;;;;;5114474;28;20023;-90
2021/07/19 13:19:52;;;;;;;9.68;6.43;;;;;;;;;;5113594;28;20024;-88
2021/07/19 13:22:19;;;;;;;8.05;5.13;;;;;;;;;;5113806;28;20064;-89
2021/07/19 13:24:47;;;;;;;11.05;6.13;;;;;;;;;;5113727;28;20092;-89
2021/07/19 13:27:16;;;;;;;7.13;3.90;;;;;;;;;;5109157;28;20375;-90
2021/07/19 13:29:56;;;;;;;14.13;5.32;;;;;;;;;;5097336;28;20020;-87
2021/07/19 13:32:27;;;;;;;9.18;5.75;;;;;;;;;;5109389;28;20020;-84
2021/07/19 13:34:55;;;;;;;9.05;5.35;;;;;;;;;;5114745;28;20047;-84
2021/07/19 13:37:21;;;;;;;9.23;4.70;;;;;;;;;;5097208;28;20491;-85
2021/07/19 13:39:47;;;;;;;10.38;4.20;;;;;;;;;;5097030;28;20089;-83
2021/07/19 13:42:13;;;;;;;8.85;4.60;;;;;;;;;;5110987;28;20020;-84
2021/07/19 13:44:41;;;;;;;7.15;4.47;;;;;;;;;;5117789;28;20099;-82
2021/07/19 13:47:09;;;;;;;6.78;4.20;;;;;;;;;;5118628;28;20028;-83
2021/07/19 13:49:38;;;;;;;8.23;3.78;;;;;;;;;;5121781;28;20467;-86
2021/07/19 13:52:03;;;;;;;;;;;;;;;;;;5121051;28;20027;-81
2021/07/19 13:54:31;;;;;;;5.88;3.58;;;;;;;;;;5104808;28;19919;-83
2021/07/19 13:57:00;;;;;;;6.55;2.97;;;;;;;;;;5122940;28;20031;-84
2021/07/19 13:59:26;;;;;;;8.68;3.60;;;;;;;;;;5122892;28;20039;-84
2021/07/19 14:01:53;;;;;;;7.35;3.55;;;;;;;;;;5123181;28;20105;-85
2021/07/19 14:04:19;;;;;;;7.95;2.95;;;;;;;;;;5124754;28;20066;-86
2021/07/19 14:06:48;;;;;;;5.47;3.90;;;;;;;;;;5106127;28;20031;-84
2021/07/19 14:09:18;;;;;;;8.88;3.50;;;;;;;;;;5124151;28;20095;-84
2021/07/19 14:11:44;;;;;;;7.25;3.35;;;;;;;;;;5124664;28;20053;-83
2021/07/19 14:14:10;;;;;;;7.80;3.70;;;;;;;;;;5123666;27;20028;-86
2021/07/19 14:16:35;;;;;;;7.75;4.07;;;;;;;;;;5117178;28;20507;-85
2021/07/19 14:19:04;;;;;;;10.63;4.68;;;;;;;;;;5116537;28;20469;-82
2021/07/19 14:21:31;;;;;;;11.63;4.25;;;;;;;;;;5116346;28;20028;-82
2021/07/19 14:23:57;;;;;;;7.78;4.07;;;;;;;;;;5115612;28;20023;-84
2021/07/19 14:26:22;;;;;;;5.40;3.90;;;;;;;;;;5116331;28;20031;-83
2021/07/19 14:28:48;;;;;;;10.15;4.80;;;;;;;;;;5116264;28;20028;-83
2021/07/19 14:31:14;;;;;;;7.70;4.22;;;;;;;;;;5116229;28;20097;-83
2021/07/19 14:33:40;;;;;;;6.78;4.47;;;;;;;;;;5116167;28;20479;-82
2021/07/19 14:36:06;;;;;;;7.45;4.45;;;;;;;;;;5116069;28;20027;-84
2021/07/19 14:38:32;;;;;;;7.15;3.55;;;;;;;;;;5115832;28;20450;-83
2021/07/19 14:40:58;;;;;;;7.18;4.05;;;;;;;;;;5116034;28;20020;-83
2021/07/19 14:43:24;;;;;;;8.65;4.82;;;;;;;;;;5114744;28;20053;-84
2021/07/19 14:45:50;;;;;;;7.55;4.13;;;;;;;;;;5115956;28;20020;-84
2021/07/19 14:48:15;;;;;;;8.27;4.63;;;;;;;;;;5115817;28;20042;-83
2021/07/19 14:50:41;;;;;;;7.43;4.28;;;;;;;;;;5114537;28;20097;-83
2021/07/19 14:53:07;;;;;;;7.18;3.03;;;;;;;;;;5116022;28;20360;-84
2021/07/19 14:55:32;;;;;;;9.48;4.47;;;;;;;;;;5116211;28;20075;-83
2021/07/19 14:57:59;;;;;;;8.38;4.75;;;;;;;;;;5115780;28;20028;-83
2021/07/19 15:00:25;;;;;;;8.65;4.60;;;;;;;;;;5115583;28;20036;-83
2021/07/19 15:02:51;;;;;;;8.90;4.45;;;;;;;;;;5115569;28;20030;-84
2021/07/19 15:05:17;;;;;;;7.13;4.68;;;;;;;;;;5114541;28;20455;-83
2021/07/19 15:07:43;;;;;;;9.00;5.18;;;;;;;;;;5097302;28;20169;-83
2021/07/19 15:10:10;;;;;;;9.63;5.35;;;;;;;;;;5115523;28;20110;-83
2021/07/19 15:12:37;;;;;;;7.20;4.57;;;;;;;;;;5114817;28;20027;-82
2021/07/19 15:15:07;;;;;;;8.77;6.32;;;;;;;;;;5114344;28;20157;-83
2021/07/19 15:17:33;;;;;;;10.98;5.30;;;;;;;;;;5115535;28;20023;-84
2021/07/19 15:19:59;;;;;;;9.05;6.30;;;;;;;;;;5114456;28;20030;-83
2021/07/19 15:22:25;;;;;;;11.20;6.47;;;;;;;;;;5115568;28;20019;-84
2021/07/19 15:24:51;;;;;;;13.00;6.32;;;;;;;;;;5113799;28;20024;-84
2021/07/19 15:27:17;;;;;;;8.52;6.07;;;;;;;;;;5115254;28;20055;-84
2021/07/19 15:29:43;;;;;;;12.23;6.45;;;;;;;;;;5115155;28;20028;-83
2021/07/19 15:32:08;;;;;;;7.93;5.57;;;;;;;;;;5115601;28;20031;-84
2021/07/19 15:34:34;;;;;;;9.10;6.18;;;;;;;;;;5114210;28;20106;-84
2021/07/19 15:37:00;;;;;;;10.60;6.43;;;;;;;;;;5115058;28;20031;-84
2021/07/19 15:39:26;;;;;;;10.90;7.22;;;;;;;;;;5115310;28;20043;-83
2021/07/19 15:41:52;;;;;;;10.15;7.13;;;;;;;;;;5116652;28;20032;-84
2021/07/19 15:44:18;;;;;;;9.98;7.53;;;;;;;;;;5116245;28;20055;-84
2021/07/19 15:46:44;;;;;;;13.52;7.22;;;;;;;;;;5116252;27;20027;-83
2021/07/19 15:49:10;;;;;;;12.38;7.20;;;;;;;;;;5116649;27;20027;-84
2021/07/19 15:51:36;;;;;;;11.30;7.40;;;;;;;;;;5117311;28;20380;-84
2021/07/19 15:54:02;;;;;;;12.15;7.47;;;;;;;;;;5114306;28;20038;-85
2021/07/19 15:56:28;;;;;;;14.73;8.45;;;;;;;;;;5114002;28;20478;-84
2021/07/19 15:58:53;;;;;;;11.55;8.35;;;;;;;;;;5114895;28;20111;-84
2021/07/19 16:01:19;;;;;;;13.93;9.27;;;;;;;;;;5113391;28;20387;-84